sensor_id;sensor_type;location;lat;lon;timestamp;P1;durP1;ratioP1;P2;durP2;ratioP2
18947;SDS011;9607;51.600;7.558;2023-09-07T00:01:34;10.07;;;8.70;;
18947;SDS011;9607;51.600;7.558;2023-09-07T00:04:01;8.45;;;7.45;;
18947;SDS011;9607;51.600;7.558;2023-09-07T00:06:29;7.63;;;6.43;;
18947;SDS011;9607;51.600;7.558;2023-09-07T00:08:56;6.47;;;5.85;;
18947;SDS011;9607;51.600;7.558;2023-09-07T00:11:23;7.68;;;6.35;;
18947;SDS011;9607;51.600;7.558;2023-09-07T00:13:50;6.82;;;6.15;;
18947;SDS011;9607;51.600;7.558;2023-09-07T00:16:18;6.30;;;5.50;;
18947;SDS011;9607;51.600;7.558;2023-09-07T00:18:45;5.68;;;4.90;;
18947;SDS011;9607;51.600;7.558;2023-09-07T00:21:13;9.73;;;8.60;;
18947;SDS011;9607;51.600;7.558;2023-09-07T00:23:40;14.85;;;12.02;;
18947;SDS011;9607;51.600;7.558;2023-09-07T00:26:08;16.55;;;12.30;;
18947;SDS011;9607;51.600;7.558;2023-09-07T00:28:37;18.90;;;13.05;;
18947;SDS011;9607;51.600;7.558;2023-09-07T00:31:04;17.00;;;13.55;;
18947;SDS011;9607;51.600;7.558;2023-09-07T00:33:32;17.48;;;13.85;;
18947;SDS011;9607;51.600;7.558;2023-09-07T00:36:01;18.88;;;15.02;;
18947;SDS011;9607;51.600;7.558;2023-09-07T00:38:28;17.83;;;12.90;;
18947;SDS011;9607;51.600;7.558;2023-09-07T00:40:55;18.77;;;12.68;;
18947;SDS011;9607;51.600;7.558;2023-09-07T00:43:22;15.38;;;13.73;;
18947;SDS011;9607;51.600;7.558;2023-09-07T00:45:48;15.73;;;12.20;;
18947;SDS011;9607;51.600;7.558;2023-09-07T00:48:16;14.23;;;10.40;;
18947;SDS011;9607;51.600;7.558;2023-09-07T00:50:44;11.07;;;9.52;;
18947;SDS011;9607;51.600;7.558;2023-09-07T00:53:13;9.70;;;8.32;;
18947;SDS011;9607;51.600;7.558;2023-09-07T00:55:41;9.40;;;8.23;;
18947;SDS011;9607;51.600;7.558;2023-09-07T00:58:08;10.57;;;9.07;;
18947;SDS011;9607;51.600;7.558;2023-09-07T01:00:36;11.02;;;8.07;;
18947;SDS011;9607;51.600;7.558;2023-09-07T01:03:05;12.93;;;9.05;;
18947;SDS011;9607;51.600;7.558;2023-09-07T01:05:34;10.68;;;9.55;;
18947;SDS011;9607;51.600;7.558;2023-09-07T01:08:10;10.95;;;9.45;;
18947;SDS011;9607;51.600;7.558;2023-09-07T01:10:41;9.65;;;8.38;;
18947;SDS011;9607;51.600;7.558;2023-09-07T01:13:08;9.82;;;8.23;;
18947;SDS011;9607;51.600;7.558;2023-09-07T01:15:35;8.63;;;7.70;;
18947;SDS011;9607;51.600;7.558;2023-09-07T01:18:03;7.45;;;6.75;;
18947;SDS011;9607;51.600;7.558;2023-09-07T01:20:32;7.82;;;7.03;;
18947;SDS011;9607;51.600;7.558;2023-09-07T01:23:01;7.80;;;6.88;;
18947;SDS011;9607;51.600;7.558;2023-09-07T01:25:29;8.98;;;8.07;;
18947;SDS011;9607;51.600;7.558;2023-09-07T01:27:57;9.70;;;8.70;;
18947;SDS011;9607;51.600;7.558;2023-09-07T01:30:26;10.63;;;9.23;;
18947;SDS011;9607;51.600;7.558;2023-09-07T01:32:53;12.35;;;9.98;;
18947;SDS011;9607;51.600;7.558;2023-09-07T01:35:21;11.25;;;8.73;;
18947;SDS011;9607;51.600;7.558;2023-09-07T01:37:49;10.20;;;8.25;;
18947;SDS011;9607;51.600;7.558;2023-09-07T01:40:18;9.57;;;8.43;;
18947;SDS011;9607;51.600;7.558;2023-09-07T01:42:44;10.05;;;8.57;;
18947;SDS011;9607;51.600;7.558;2023-09-07T01:45:11;9.73;;;8.70;;
18947;SDS011;9607;51.600;7.558;2023-09-07T01:47:38;8.93;;;8.02;;
18947;SDS011;9607;51.600;7.558;2023-09-07T01:50:05;8.55;;;7.45;;
18947;SDS011;9607;51.600;7.558;2023-09-07T01:52:32;9.48;;;8.52;;
18947;SDS011;9607;51.600;7.558;2023-09-07T01:54:59;9.93;;;7.95;;
18947;SDS011;9607;51.600;7.558;2023-09-07T01:57:28;10.02;;;8.73;;
18947;SDS011;9607;51.600;7.558;2023-09-07T01:59:55;10.38;;;8.80;;
18947;SDS011;9607;51.600;7.558;2023-09-07T02:02:22;8.95;;;8.05;;
18947;SDS011;9607;51.600;7.558;2023-09-07T02:04:49;11.35;;;9.45;;
18947;SDS011;9607;51.600;7.558;2023-09-07T02:07:15;11.07;;;9.90;;
18947;SDS011;9607;51.600;7.558;2023-09-07T02:09:42;11.75;;;9.70;;
18947;SDS011;9607;51.600;7.558;2023-09-07T02:12:09;9.48;;;8.48;;
18947;SDS011;9607;51.600;7.558;2023-09-07T02:14:38;9.88;;;8.30;;
18947;SDS011;9607;51.600;7.558;2023-09-07T02:17:05;9.68;;;8.18;;
18947;SDS011;9607;51.600;7.558;2023-09-07T02:19:31;9.73;;;8.73;;
18947;SDS011;9607;51.600;7.558;2023-09-07T02:21:58;8.15;;;7.35;;
18947;SDS011;9607;51.600;7.558;2023-09-07T02:24:25;9.27;;;7.82;;
18947;SDS011;9607;51.600;7.558;2023-09-07T02:26:52;10.35;;;8.70;;
18947;SDS011;9607;51.600;7.558;2023-09-07T02:29:19;9.65;;;8.15;;
18947;SDS011;9607;51.600;7.558;2023-09-07T02:31:47;8.27;;;7.53;;
18947;SDS011;9607;51.600;7.558;2023-09-07T02:34:16;7.72;;;6.95;;
18947;SDS011;9607;51.600;7.558;2023-09-07T02:36:42;10.88;;;7.43;;
18947;SDS011;9607;51.600;7.558;2023-09-07T02:39:09;7.20;;;6.50;;
18947;SDS011;9607;51.600;7.558;2023-09-07T02:41:36;6.47;;;5.85;;
18947;SDS011;9607;51.600;7.558;2023-09-07T02:44:04;6.07;;;5.55;;
18947;SDS011;9607;51.600;7.558;2023-09-07T02:46:31;6.57;;;5.90;;
18947;SDS011;9607;51.600;7.558;2023-09-07T02:49:00;7.13;;;6.13;;
18947;SDS011;9607;51.600;7.558;2023-09-07T02:51:27;6.78;;;6.07;;
18947;SDS011;9607;51.600;7.558;2023-09-07T02:53:53;10.85;;;9.75;;
18947;SDS011;9607;51.600;7.558;2023-09-07T02:56:22;14.02;;;12.30;;
18947;SDS011;9607;51.600;7.558;2023-09-07T02:58:50;15.27;;;12.05;;
18947;SDS011;9607;51.600;7.558;2023-09-07T03:01:17;12.98;;;10.40;;
18947;SDS011;9607;51.600;7.558;2023-09-07T03:03:46;13.05;;;10.80;;
18947;SDS011;9607;51.600;7.558;2023-09-07T03:06:15;10.25;;;9.13;;
18947;SDS011;9607;51.600;7.558;2023-09-07T03:08:42;9.43;;;8.27;;
18947;SDS011;9607;51.600;7.558;2023-09-07T03:11:09;7.68;;;6.88;;
18947;SDS011;9607;51.600;7.558;2023-09-07T03:13:37;7.15;;;6.45;;
18947;SDS011;9607;51.600;7.558;2023-09-07T03:16:04;8.00;;;7.13;;
18947;SDS011;9607;51.600;7.558;2023-09-07T03:18:31;7.75;;;6.95;;
18947;SDS011;9607;51.600;7.558;2023-09-07T03:21:00;10.48;;;8.65;;
18947;SDS011;9607;51.600;7.558;2023-09-07T03:23:31;11.85;;;9.50;;
18947;SDS011;9607;51.600;7.558;2023-09-07T03:25:59;9.50;;;8.50;;
18947;SDS011;9607;51.600;7.558;2023-09-07T03:28:26;10.68;;;8.43;;
18947;SDS011;9607;51.600;7.558;2023-09-07T03:30:53;9.65;;;8.20;;
18947;SDS011;9607;51.600;7.558;2023-09-07T03:33:20;8.85;;;7.57;;
18947;SDS011;9607;51.600;7.558;2023-09-07T03:35:47;10.77;;;9.05;;
18947;SDS011;9607;51.600;7.558;2023-09-07T03:38:16;13.00;;;10.40;;
18947;SDS011;9607;51.600;7.558;2023-09-07T03:40:45;13.35;;;9.52;;
18947;SDS011;9607;51.600;7.558;2023-09-07T03:43:11;12.48;;;11.15;;
18947;SDS011;9607;51.600;7.558;2023-09-07T03:45:38;12.07;;;10.57;;
18947;SDS011;9607;51.600;7.558;2023-09-07T03:48:05;12.48;;;9.32;;
18947;SDS011;9607;51.600;7.558;2023-09-07T03:50:33;12.35;;;11.00;;
18947;SDS011;9607;51.600;7.558;2023-09-07T03:53:01;12.45;;;11.13;;
18947;SDS011;9607;51.600;7.558;2023-09-07T03:55:28;15.85;;;12.05;;
18947;SDS011;9607;51.600;7.558;2023-09-07T03:57:57;14.30;;;11.18;;
18947;SDS011;9607;51.600;7.558;2023-09-07T04:00:24;14.10;;;11.48;;
18947;SDS011;9607;51.600;7.558;2023-09-07T04:02:51;13.00;;;9.95;;
18947;SDS011;9607;51.600;7.558;2023-09-07T04:05:18;11.00;;;9.43;;
18947;SDS011;9607;51.600;7.558;2023-09-07T04:07:45;10.70;;;8.60;;
18947;SDS011;9607;51.600;7.558;2023-09-07T04:10:12;7.82;;;6.95;;
18947;SDS011;9607;51.600;7.558;2023-09-07T04:12:38;6.55;;;5.93;;
18947;SDS011;9607;51.600;7.558;2023-09-07T04:15:10;7.10;;;5.97;;
18947;SDS011;9607;51.600;7.558;2023-09-07T04:17:37;4.93;;;4.53;;
18947;SDS011;9607;51.600;7.558;2023-09-07T04:20:06;5.35;;;4.80;;
18947;SDS011;9607;51.600;7.558;2023-09-07T04:22:35;4.75;;;4.32;;
18947;SDS011;9607;51.600;7.558;2023-09-07T04:25:02;4.80;;;4.40;;
18947;SDS011;9607;51.600;7.558;2023-09-07T04:27:30;4.45;;;4.05;;
18947;SDS011;9607;51.600;7.558;2023-09-07T04:29:57;4.57;;;4.18;;
18947;SDS011;9607;51.600;7.558;2023-09-07T04:32:25;4.43;;;4.03;;
18947;SDS011;9607;51.600;7.558;2023-09-07T04:34:53;4.40;;;4.00;;
18947;SDS011;9607;51.600;7.558;2023-09-07T04:37:21;4.38;;;3.97;;
18947;SDS011;9607;51.600;7.558;2023-09-07T04:39:50;4.45;;;4.07;;
18947;SDS011;9607;51.600;7.558;2023-09-07T04:42:17;4.55;;;4.15;;
18947;SDS011;9607;51.600;7.558;2023-09-07T04:44:44;4.90;;;4.40;;
18947;SDS011;9607;51.600;7.558;2023-09-07T04:47:12;4.63;;;4.22;;
18947;SDS011;9607;51.600;7.558;2023-09-07T04:49:41;4.63;;;4.22;;
18947;SDS011;9607;51.600;7.558;2023-09-07T04:52:08;4.10;;;3.78;;
18947;SDS011;9607;51.600;7.558;2023-09-07T04:54:35;4.13;;;3.72;;
18947;SDS011;9607;51.600;7.558;2023-09-07T04:57:02;4.43;;;4.03;;
18947;SDS011;9607;51.600;7.558;2023-09-07T04:59:29;4.75;;;4.35;;
18947;SDS011;9607;51.600;7.558;2023-09-07T05:01:58;4.68;;;4.28;;
18947;SDS011;9607;51.600;7.558;2023-09-07T05:04:26;4.82;;;4.43;;
18947;SDS011;9607;51.600;7.558;2023-09-07T05:06:55;6.45;;;5.80;;
18947;SDS011;9607;51.600;7.558;2023-09-07T05:09:23;8.68;;;7.78;;
18947;SDS011;9607;51.600;7.558;2023-09-07T05:11:50;11.23;;;9.13;;
18947;SDS011;9607;51.600;7.558;2023-09-07T05:14:17;12.65;;;8.98;;
18947;SDS011;9607;51.600;7.558;2023-09-07T05:16:44;8.65;;;7.75;;
18947;SDS011;9607;51.600;7.558;2023-09-07T05:19:11;9.27;;;7.28;;
18947;SDS011;9607;51.600;7.558;2023-09-07T05:21:38;8.80;;;7.90;;
18947;SDS011;9607;51.600;7.558;2023-09-07T05:24:06;6.75;;;6.07;;
18947;SDS011;9607;51.600;7.558;2023-09-07T05:26:33;6.30;;;5.70;;
18947;SDS011;9607;51.600;7.558;2023-09-07T05:29:01;6.28;;;5.68;;
18947;SDS011;9607;51.600;7.558;2023-09-07T05:31:28;5.45;;;5.00;;
18947;SDS011;9607;51.600;7.558;2023-09-07T05:33:55;5.80;;;5.25;;
18947;SDS011;9607;51.600;7.558;2023-09-07T05:36:22;9.45;;;8.45;;
18947;SDS011;9607;51.600;7.558;2023-09-07T05:38:49;9.40;;;7.78;;
18947;SDS011;9607;51.600;7.558;2023-09-07T05:41:17;7.35;;;6.65;;
18947;SDS011;9607;51.600;7.558;2023-09-07T05:43:44;6.80;;;6.20;;
18947;SDS011;9607;51.600;7.558;2023-09-07T05:46:11;5.30;;;4.78;;
18947;SDS011;9607;51.600;7.558;2023-09-07T05:48:38;4.28;;;3.95;;
18947;SDS011;9607;51.600;7.558;2023-09-07T05:51:05;4.97;;;4.47;;
18947;SDS011;9607;51.600;7.558;2023-09-07T05:53:32;5.22;;;4.72;;
18947;SDS011;9607;51.600;7.558;2023-09-07T05:55:59;5.32;;;4.82;;
18947;SDS011;9607;51.600;7.558;2023-09-07T05:58:27;4.60;;;4.20;;
18947;SDS011;9607;51.600;7.558;2023-09-07T06:00:54;4.60;;;4.07;;
18947;SDS011;9607;51.600;7.558;2023-09-07T06:03:21;5.20;;;4.80;;
18947;SDS011;9607;51.600;7.558;2023-09-07T06:05:48;5.70;;;5.20;;
18947;SDS011;9607;51.600;7.558;2023-09-07T06:08:15;5.07;;;4.57;;
18947;SDS011;9607;51.600;7.558;2023-09-07T06:10:42;4.13;;;3.78;;
18947;SDS011;9607;51.600;7.558;2023-09-07T06:13:08;4.28;;;3.88;;
18947;SDS011;9607;51.600;7.558;2023-09-07T06:15:37;3.67;;;3.38;;
18947;SDS011;9607;51.600;7.558;2023-09-07T06:18:04;4.20;;;3.90;;
18947;SDS011;9607;51.600;7.558;2023-09-07T06:20:31;9.30;;;8.32;;
18947;SDS011;9607;51.600;7.558;2023-09-07T06:22:59;10.93;;;9.93;;
18947;SDS011;9607;51.600;7.558;2023-09-07T06:25:26;13.00;;;9.57;;
18947;SDS011;9607;51.600;7.558;2023-09-07T06:27:53;6.68;;;6.07;;
18947;SDS011;9607;51.600;7.558;2023-09-07T06:30:20;6.85;;;6.13;;
18947;SDS011;9607;51.600;7.558;2023-09-07T06:32:48;4.70;;;4.28;;
18947;SDS011;9607;51.600;7.558;2023-09-07T06:35:16;4.90;;;4.50;;
18947;SDS011;9607;51.600;7.558;2023-09-07T06:37:45;7.03;;;6.32;;
18947;SDS011;9607;51.600;7.558;2023-09-07T06:40:12;5.00;;;4.53;;
18947;SDS011;9607;51.600;7.558;2023-09-07T06:42:40;4.18;;;3.85;;
18947;SDS011;9607;51.600;7.558;2023-09-07T06:45:08;4.00;;;3.70;;
18947;SDS011;9607;51.600;7.558;2023-09-07T06:47:35;8.00;;;6.97;;
18947;SDS011;9607;51.600;7.558;2023-09-07T06:50:04;9.30;;;6.55;;
18947;SDS011;9607;51.600;7.558;2023-09-07T06:52:31;5.95;;;5.45;;
18947;SDS011;9607;51.600;7.558;2023-09-07T06:54:58;4.50;;;4.10;;
18947;SDS011;9607;51.600;7.558;2023-09-07T06:57:26;4.53;;;4.13;;
18947;SDS011;9607;51.600;7.558;2023-09-07T06:59:53;5.68;;;4.40;;
18947;SDS011;9607;51.600;7.558;2023-09-07T07:02:20;4.00;;;3.63;;
18947;SDS011;9607;51.600;7.558;2023-09-07T07:04:47;4.32;;;3.92;;
18947;SDS011;9607;51.600;7.558;2023-09-07T07:07:15;3.90;;;3.60;;
18947;SDS011;9607;51.600;7.558;2023-09-07T07:09:42;4.90;;;4.40;;
18947;SDS011;9607;51.600;7.558;2023-09-07T07:12:09;4.57;;;4.18;;
18947;SDS011;9607;51.600;7.558;2023-09-07T07:14:37;3.80;;;3.50;;
18947;SDS011;9607;51.600;7.558;2023-09-07T07:17:04;3.60;;;3.30;;
18947;SDS011;9607;51.600;7.558;2023-09-07T07:19:31;3.50;;;3.17;;
18947;SDS011;9607;51.600;7.558;2023-09-07T07:21:58;2.78;;;2.58;;
18947;SDS011;9607;51.600;7.558;2023-09-07T07:24:28;4.75;;;4.28;;
18947;SDS011;9607;51.600;7.558;2023-09-07T07:26:56;3.72;;;3.42;;
18947;SDS011;9607;51.600;7.558;2023-09-07T07:29:23;3.97;;;3.67;;
18947;SDS011;9607;51.600;7.558;2023-09-07T07:31:49;3.55;;;3.25;;
18947;SDS011;9607;51.600;7.558;2023-09-07T07:34:16;3.95;;;3.60;;
18947;SDS011;9607;51.600;7.558;2023-09-07T07:36:43;4.32;;;3.92;;
18947;SDS011;9607;51.600;7.558;2023-09-07T07:39:10;3.25;;;2.97;;
18947;SDS011;9607;51.600;7.558;2023-09-07T07:41:38;2.67;;;2.47;;
18947;SDS011;9607;51.600;7.558;2023-09-07T07:44:06;2.92;;;2.70;;
18947;SDS011;9607;51.600;7.558;2023-09-07T07:46:34;3.40;;;3.08;;
18947;SDS011;9607;51.600;7.558;2023-09-07T07:49:01;5.30;;;3.20;;
18947;SDS011;9607;51.600;7.558;2023-09-07T07:51:28;3.67;;;3.25;;
18947;SDS011;9607;51.600;7.558;2023-09-07T07:53:55;3.47;;;3.17;;
18947;SDS011;9607;51.600;7.558;2023-09-07T07:56:22;3.28;;;3.08;;
18947;SDS011;9607;51.600;7.558;2023-09-07T07:58:51;10.70;;;5.00;;
18947;SDS011;9607;51.600;7.558;2023-09-07T08:01:18;7.13;;;4.32;;
18947;SDS011;9607;51.600;7.558;2023-09-07T08:03:46;3.95;;;3.30;;
18947;SDS011;9607;51.600;7.558;2023-09-07T08:06:13;3.50;;;3.20;;
18947;SDS011;9607;51.600;7.558;2023-09-07T08:08:40;4.68;;;4.20;;
18947;SDS011;9607;51.600;7.558;2023-09-07T08:11:07;4.00;;;3.60;;
18947;SDS011;9607;51.600;7.558;2023-09-07T08:13:34;4.93;;;4.07;;
18947;SDS011;9607;51.600;7.558;2023-09-07T08:16:03;4.43;;;3.72;;
18947;SDS011;9607;51.600;7.558;2023-09-07T08:18:32;3.55;;;3.25;;
18947;SDS011;9607;51.600;7.558;2023-09-07T08:21:00;4.93;;;3.25;;
18947;SDS011;9607;51.600;7.558;2023-09-07T08:23:27;4.93;;;3.55;;
18947;SDS011;9607;51.600;7.558;2023-09-07T08:25:54;4.18;;;3.38;;
18947;SDS011;9607;51.600;7.558;2023-09-07T08:28:21;5.03;;;3.97;;
18947;SDS011;9607;51.600;7.558;2023-09-07T08:30:49;4.72;;;3.50;;
18947;SDS011;9607;51.600;7.558;2023-09-07T08:33:19;6.15;;;4.40;;
18947;SDS011;9607;51.600;7.558;2023-09-07T08:35:53;4.20;;;3.72;;
18947;SDS011;9607;51.600;7.558;2023-09-07T08:38:21;3.72;;;3.08;;
18947;SDS011;9607;51.600;7.558;2023-09-07T08:40:51;4.38;;;3.40;;
18947;SDS011;9607;51.600;7.558;2023-09-07T08:43:19;3.97;;;3.40;;
18947;SDS011;9607;51.600;7.558;2023-09-07T08:45:49;3.75;;;3.33;;
18947;SDS011;9607;51.600;7.558;2023-09-07T08:48:28;4.80;;;3.90;;
18947;SDS011;9607;51.600;7.558;2023-09-07T08:50:56;5.95;;;3.40;;
18947;SDS011;9607;51.600;7.558;2023-09-07T08:53:24;5.68;;;3.60;;
18947;SDS011;9607;51.600;7.558;2023-09-07T08:55:52;3.40;;;3.10;;
18947;SDS011;9607;51.600;7.558;2023-09-07T08:58:18;6.00;;;4.25;;
18947;SDS011;9607;51.600;7.558;2023-09-07T09:00:45;6.10;;;4.38;;
18947;SDS011;9607;51.600;7.558;2023-09-07T09:03:14;4.63;;;3.45;;
18947;SDS011;9607;51.600;7.558;2023-09-07T09:05:44;3.70;;;3.05;;
18947;SDS011;9607;51.600;7.558;2023-09-07T09:08:12;4.65;;;3.70;;
18947;SDS011;9607;51.600;7.558;2023-09-07T09:10:39;4.03;;;3.60;;
18947;SDS011;9607;51.600;7.558;2023-09-07T09:13:07;6.90;;;3.78;;
18947;SDS011;9607;51.600;7.558;2023-09-07T09:15:36;5.22;;;3.85;;
18947;SDS011;9607;51.600;7.558;2023-09-07T09:18:10;3.90;;;3.45;;
18947;SDS011;9607;51.600;7.558;2023-09-07T09:20:38;3.72;;;3.00;;
18947;SDS011;9607;51.600;7.558;2023-09-07T09:23:06;5.40;;;3.50;;
18947;SDS011;9607;51.600;7.558;2023-09-07T09:25:34;3.25;;;2.95;;
18947;SDS011;9607;51.600;7.558;2023-09-07T09:28:00;3.50;;;3.20;;
18947;SDS011;9607;51.600;7.558;2023-09-07T09:30:28;3.53;;;3.22;;
18947;SDS011;9607;51.600;7.558;2023-09-07T09:32:55;2.90;;;2.60;;
18947;SDS011;9607;51.600;7.558;2023-09-07T09:35:22;3.03;;;2.70;;
18947;SDS011;9607;51.600;7.558;2023-09-07T09:37:49;6.00;;;3.03;;
18947;SDS011;9607;51.600;7.558;2023-09-07T09:40:17;2.78;;;2.47;;
18947;SDS011;9607;51.600;7.558;2023-09-07T09:42:45;3.78;;;2.83;;
18947;SDS011;9607;51.600;7.558;2023-09-07T09:45:12;3.92;;;2.95;;
18947;SDS011;9607;51.600;7.558;2023-09-07T09:47:39;5.75;;;3.70;;
18947;SDS011;9607;51.600;7.558;2023-09-07T09:50:09;4.03;;;3.22;;
18947;SDS011;9607;51.600;7.558;2023-09-07T09:52:37;5.68;;;2.97;;
18947;SDS011;9607;51.600;7.558;2023-09-07T09:55:04;2.90;;;2.63;;
18947;SDS011;9607;51.600;7.558;2023-09-07T09:57:35;2.92;;;2.72;;
18947;SDS011;9607;51.600;7.558;2023-09-07T10:00:03;3.40;;;3.10;;
18947;SDS011;9607;51.600;7.558;2023-09-07T10:02:46;5.82;;;3.45;;
18947;SDS011;9607;51.600;7.558;2023-09-07T10:05:15;3.58;;;3.22;;
18947;SDS011;9607;51.600;7.558;2023-09-07T10:07:44;3.78;;;3.15;;
18947;SDS011;9607;51.600;7.558;2023-09-07T10:10:14;3.92;;;3.08;;
18947;SDS011;9607;51.600;7.558;2023-09-07T10:12:43;3.28;;;2.97;;
18947;SDS011;9607;51.600;7.558;2023-09-07T10:15:23;3.03;;;2.65;;
18947;SDS011;9607;51.600;7.558;2023-09-07T10:18:02;3.75;;;2.70;;
18947;SDS011;9607;51.600;7.558;2023-09-07T10:20:34;2.78;;;2.58;;
18947;SDS011;9607;51.600;7.558;2023-09-07T10:23:12;3.15;;;2.75;;
18947;SDS011;9607;51.600;7.558;2023-09-07T10:25:39;5.57;;;3.80;;
18947;SDS011;9607;51.600;7.558;2023-09-07T10:28:17;4.25;;;2.83;;
18947;SDS011;9607;51.600;7.558;2023-09-07T10:30:45;4.72;;;3.08;;
18947;SDS011;9607;51.600;7.558;2023-09-07T10:33:23;5.03;;;2.78;;
18947;SDS011;9607;51.600;7.558;2023-09-07T10:35:50;6.45;;;3.17;;
18947;SDS011;9607;51.600;7.558;2023-09-07T10:38:16;4.35;;;3.33;;
18947;SDS011;9607;51.600;7.558;2023-09-07T10:40:44;5.63;;;2.80;;
18947;SDS011;9607;51.600;7.558;2023-09-07T10:43:11;5.18;;;3.58;;
18947;SDS011;9607;51.600;7.558;2023-09-07T10:45:43;3.75;;;3.30;;
18947;SDS011;9607;51.600;7.558;2023-09-07T10:48:11;4.88;;;3.05;;
18947;SDS011;9607;51.600;7.558;2023-09-07T10:50:42;5.53;;;3.00;;
18947;SDS011;9607;51.600;7.558;2023-09-07T10:53:11;4.20;;;3.58;;
18947;SDS011;9607;51.600;7.558;2023-09-07T10:55:39;4.32;;;2.80;;
18947;SDS011;9607;51.600;7.558;2023-09-07T10:58:08;4.28;;;3.33;;
18947;SDS011;9607;51.600;7.558;2023-09-07T11:00:36;4.63;;;3.03;;
18947;SDS011;9607;51.600;7.558;2023-09-07T11:03:08;2.88;;;2.67;;
18947;SDS011;9607;51.600;7.558;2023-09-07T11:05:36;7.15;;;3.50;;
18947;SDS011;9607;51.600;7.558;2023-09-07T11:08:05;5.28;;;3.08;;
18947;SDS011;9607;51.600;7.558;2023-09-07T11:10:33;4.28;;;2.92;;
18947;SDS011;9607;51.600;7.558;2023-09-07T11:13:04;3.17;;;2.88;;
18947;SDS011;9607;51.600;7.558;2023-09-07T11:15:32;4.35;;;3.10;;
18947;SDS011;9607;51.600;7.558;2023-09-07T11:18:03;3.88;;;3.13;;
18947;SDS011;9607;51.600;7.558;2023-09-07T11:20:33;3.28;;;2.90;;
18947;SDS011;9607;51.600;7.558;2023-09-07T11:23:02;4.05;;;3.15;;
18947;SDS011;9607;51.600;7.558;2023-09-07T11:25:33;3.97;;;3.55;;
18947;SDS011;9607;51.600;7.558;2023-09-07T11:28:02;3.40;;;3.10;;
18947;SDS011;9607;51.600;7.558;2023-09-07T11:30:29;5.30;;;3.10;;
18947;SDS011;9607;51.600;7.558;2023-09-07T11:33:02;4.63;;;3.35;;
18947;SDS011;9607;51.600;7.558;2023-09-07T11:35:31;3.33;;;2.90;;
18947;SDS011;9607;51.600;7.558;2023-09-07T11:37:59;3.30;;;3.00;;
18947;SDS011;9607;51.600;7.558;2023-09-07T11:40:28;5.25;;;3.33;;
18947;SDS011;9607;51.600;7.558;2023-09-07T11:42:55;3.28;;;2.83;;
18947;SDS011;9607;51.600;7.558;2023-09-07T11:45:23;7.20;;;3.30;;
18947;SDS011;9607;51.600;7.558;2023-09-07T11:47:50;3.05;;;2.63;;
18947;SDS011;9607;51.600;7.558;2023-09-07T11:50:17;3.10;;;2.80;;
18947;SDS011;9607;51.600;7.558;2023-09-07T11:52:45;4.25;;;3.30;;
18947;SDS011;9607;51.600;7.558;2023-09-07T11:55:13;3.17;;;2.88;;
18947;SDS011;9607;51.600;7.558;2023-09-07T11:57:40;2.97;;;2.70;;
18947;SDS011;9607;51.600;7.558;2023-09-07T12:00:08;6.88;;;3.30;;
18947;SDS011;9607;51.600;7.558;2023-09-07T12:02:36;6.57;;;3.80;;
18947;SDS011;9607;51.600;7.558;2023-09-07T12:05:05;3.75;;;3.38;;
18947;SDS011;9607;51.600;7.558;2023-09-07T12:07:34;3.30;;;2.60;;
18947;SDS011;9607;51.600;7.558;2023-09-07T12:10:03;2.70;;;2.50;;
18947;SDS011;9607;51.600;7.558;2023-09-07T12:12:30;3.30;;;3.00;;
18947;SDS011;9607;51.600;7.558;2023-09-07T12:14:57;3.35;;;2.83;;
18947;SDS011;9607;51.600;7.558;2023-09-07T12:17:25;4.05;;;2.55;;
18947;SDS011;9607;51.600;7.558;2023-09-07T12:19:52;6.38;;;3.15;;
18947;SDS011;9607;51.600;7.558;2023-09-07T12:22:19;3.25;;;2.95;;
18947;SDS011;9607;51.600;7.558;2023-09-07T12:24:46;2.95;;;2.75;;
18947;SDS011;9607;51.600;7.558;2023-09-07T12:27:14;3.47;;;2.72;;
18947;SDS011;9607;51.600;7.558;2023-09-07T12:29:41;2.72;;;2.53;;
18947;SDS011;9607;51.600;7.558;2023-09-07T12:32:07;5.95;;;2.60;;
18947;SDS011;9607;51.600;7.558;2023-09-07T12:34:34;2.50;;;2.30;;
18947;SDS011;9607;51.600;7.558;2023-09-07T12:37:01;3.33;;;2.53;;
18947;SDS011;9607;51.600;7.558;2023-09-07T12:39:30;4.40;;;2.83;;
18947;SDS011;9607;51.600;7.558;2023-09-07T12:41:57;3.25;;;2.40;;
18947;SDS011;9607;51.600;7.558;2023-09-07T12:44:26;2.70;;;2.50;;
18947;SDS011;9607;51.600;7.558;2023-09-07T12:46:53;3.30;;;3.00;;
18947;SDS011;9607;51.600;7.558;2023-09-07T12:49:21;3.00;;;2.70;;
18947;SDS011;9607;51.600;7.558;2023-09-07T12:51:47;8.50;;;2.80;;
18947;SDS011;9607;51.600;7.558;2023-09-07T12:54:14;3.28;;;2.97;;
18947;SDS011;9607;51.600;7.558;2023-09-07T12:56:42;2.97;;;2.70;;
18947;SDS011;9607;51.600;7.558;2023-09-07T12:59:09;6.18;;;3.10;;
18947;SDS011;9607;51.600;7.558;2023-09-07T13:01:38;3.25;;;2.40;;
18947;SDS011;9607;51.600;7.558;2023-09-07T13:04:05;3.10;;;2.80;;
18947;SDS011;9607;51.600;7.558;2023-09-07T13:06:32;2.85;;;2.63;;
18947;SDS011;9607;51.600;7.558;2023-09-07T13:08:59;2.95;;;2.63;;
18947;SDS011;9607;51.600;7.558;2023-09-07T13:11:26;3.92;;;2.80;;
18947;SDS011;9607;51.600;7.558;2023-09-07T13:13:53;2.65;;;2.45;;
18947;SDS011;9607;51.600;7.558;2023-09-07T13:16:19;5.53;;;3.22;;
18947;SDS011;9607;51.600;7.558;2023-09-07T13:18:48;4.57;;;2.70;;
18947;SDS011;9607;51.600;7.558;2023-09-07T13:21:14;4.78;;;2.63;;
18947;SDS011;9607;51.600;7.558;2023-09-07T13:23:41;3.95;;;3.00;;
18947;SDS011;9607;51.600;7.558;2023-09-07T13:26:08;6.93;;;3.10;;
18947;SDS011;9607;51.600;7.558;2023-09-07T13:28:35;4.50;;;2.72;;
18947;SDS011;9607;51.600;7.558;2023-09-07T13:31:02;3.78;;;2.60;;
18947;SDS011;9607;51.600;7.558;2023-09-07T13:33:29;7.28;;;2.60;;
18947;SDS011;9607;51.600;7.558;2023-09-07T13:35:57;2.80;;;2.60;;
18947;SDS011;9607;51.600;7.558;2023-09-07T13:38:24;4.50;;;2.55;;
18947;SDS011;9607;51.600;7.558;2023-09-07T13:40:50;4.22;;;2.88;;
18947;SDS011;9607;51.600;7.558;2023-09-07T13:43:17;4.70;;;2.60;;
18947;SDS011;9607;51.600;7.558;2023-09-07T13:45:44;5.22;;;2.67;;
18947;SDS011;9607;51.600;7.558;2023-09-07T13:48:11;4.22;;;2.67;;
18947;SDS011;9607;51.600;7.558;2023-09-07T13:50:38;4.22;;;2.63;;
18947;SDS011;9607;51.600;7.558;2023-09-07T13:53:07;2.55;;;2.35;;
18947;SDS011;9607;51.600;7.558;2023-09-07T13:55:33;4.50;;;2.90;;
18947;SDS011;9607;51.600;7.558;2023-09-07T13:58:01;2.90;;;2.30;;
18947;SDS011;9607;51.600;7.558;2023-09-07T14:00:27;3.35;;;2.42;;
18947;SDS011;9607;51.600;7.558;2023-09-07T14:02:54;4.93;;;2.50;;
18947;SDS011;9607;51.600;7.558;2023-09-07T14:05:22;2.53;;;2.30;;
18947;SDS011;9607;51.600;7.558;2023-09-07T14:07:49;3.25;;;2.40;;
18947;SDS011;9607;51.600;7.558;2023-09-07T14:10:17;3.88;;;2.85;;
18947;SDS011;9607;51.600;7.558;2023-09-07T14:12:44;5.75;;;2.85;;
18947;SDS011;9607;51.600;7.558;2023-09-07T14:15:13;4.50;;;2.40;;
18947;SDS011;9607;51.600;7.558;2023-09-07T14:17:40;5.00;;;2.38;;
18947;SDS011;9607;51.600;7.558;2023-09-07T14:20:07;4.88;;;2.88;;
18947;SDS011;9607;51.600;7.558;2023-09-07T14:22:35;5.18;;;2.58;;
18947;SDS011;9607;51.600;7.558;2023-09-07T14:25:02;4.68;;;2.63;;
18947;SDS011;9607;51.600;7.558;2023-09-07T14:27:31;3.17;;;2.42;;
18947;SDS011;9607;51.600;7.558;2023-09-07T14:29:57;7.60;;;2.67;;
18947;SDS011;9607;51.600;7.558;2023-09-07T14:32:24;4.00;;;2.90;;
18947;SDS011;9607;51.600;7.558;2023-09-07T14:34:52;2.60;;;2.40;;
18947;SDS011;9607;51.600;7.558;2023-09-07T14:37:18;2.67;;;2.17;;
18947;SDS011;9607;51.600;7.558;2023-09-07T14:39:45;3.28;;;2.47;;
18947;SDS011;9607;51.600;7.558;2023-09-07T14:42:15;3.63;;;2.50;;
18947;SDS011;9607;51.600;7.558;2023-09-07T14:44:45;3.05;;;2.58;;
18947;SDS011;9607;51.600;7.558;2023-09-07T14:47:13;3.92;;;2.22;;
18947;SDS011;9607;51.600;7.558;2023-09-07T14:49:41;4.95;;;2.80;;
18947;SDS011;9607;51.600;7.558;2023-09-07T14:52:07;3.35;;;2.40;;
18947;SDS011;9607;51.600;7.558;2023-09-07T14:54:36;6.68;;;2.55;;
18947;SDS011;9607;51.600;7.558;2023-09-07T14:57:03;4.97;;;2.70;;
18947;SDS011;9607;51.600;7.558;2023-09-07T14:59:30;3.05;;;2.63;;
18947;SDS011;9607;51.600;7.558;2023-09-07T15:01:58;4.43;;;3.08;;